sensor_id;sensor_type;location;lat;lon;timestamp;pressure;altitude;pressure_sealevel;temperature
31528;BMP280;10206;48.012;10.030;2022-10-22T00:00:56;94617.94;;;17.61
31528;BMP280;10206;48.012;10.030;2022-10-22T00:03:22;94618.16;;;17.65
31528;BMP280;10206;48.012;10.030;2022-10-22T00:05:47;94632.38;;;17.60
31528;BMP280;10206;48.012;10.030;2022-10-22T00:08:13;94637.38;;;17.07
31528;BMP280;10206;48.012;10.030;2022-10-22T00:10:40;94651.19;;;16.80
31528;BMP280;10206;48.012;10.030;2022-10-22T00:13:06;94660.78;;;16.65
31528;BMP280;10206;48.012;10.030;2022-10-22T00:15:32;94667.84;;;16.95
31528;BMP280;10206;48.012;10.030;2022-10-22T00:17:57;94664.66;;;16.74
31528;BMP280;10206;48.012;10.030;2022-10-22T00:20:23;94673.94;;;16.80
31528;BMP280;10206;48.012;10.030;2022-10-22T00:22:49;94676.59;;;16.78
31528;BMP280;10206;48.012;10.030;2022-10-22T00:25:15;94675.03;;;16.34
31528;BMP280;10206;48.012;10.030;2022-10-22T00:27:41;94682.00;;;16.63
31528;BMP280;10206;48.012;10.030;2022-10-22T00:30:07;94672.91;;;16.74
31528;BMP280;10206;48.012;10.030;2022-10-22T00:32:33;94677.09;;;16.75
31528;BMP280;10206;48.012;10.030;2022-10-22T00:34:59;94684.13;;;16.64
31528;BMP280;10206;48.012;10.030;2022-10-22T00:37:25;94686.50;;;16.70
31528;BMP280;10206;48.012;10.030;2022-10-22T00:39:51;94682.09;;;16.26
31528;BMP280;10206;48.012;10.030;2022-10-22T00:42:20;94685.75;;;16.55
31528;BMP280;10206;48.012;10.030;2022-10-22T00:50:16;94706.47;;;16.56
31528;BMP280;10206;48.012;10.030;2022-10-22T00:52:43;94700.81;;;16.41
31528;BMP280;10206;48.012;10.030;2022-10-22T00:55:10;94703.59;;;16.54
31528;BMP280;10206;48.012;10.030;2022-10-22T00:57:36;94695.75;;;16.63
31528;BMP280;10206;48.012;10.030;2022-10-22T01:00:04;94696.59;;;16.65
31528;BMP280;10206;48.012;10.030;2022-10-22T01:02:31;94711.97;;;16.56
31528;BMP280;10206;48.012;10.030;2022-10-22T01:04:56;94714.31;;;16.62
31528;BMP280;10206;48.012;10.030;2022-10-22T01:07:24;94717.72;;;16.61
31528;BMP280;10206;48.012;10.030;2022-10-22T01:12:54;94711.03;;;16.52
31528;BMP280;10206;48.012;10.030;2022-10-22T01:18:19;94677.00;;;16.20
31528;BMP280;10206;48.012;10.030;2022-10-22T01:21:22;94690.88;;;16.22
31528;BMP280;10206;48.012;10.030;2022-10-22T01:24:34;94692.97;;;16.35
31528;BMP280;10206;48.012;10.030;2022-10-22T01:30:03;94703.41;;;16.50
31528;BMP280;10206;48.012;10.030;2022-10-22T01:32:38;94696.34;;;16.47
31528;BMP280;10206;48.012;10.030;2022-10-22T01:35:09;94714.16;;;16.33
31528;BMP280;10206;48.012;10.030;2022-10-22T01:37:45;94702.03;;;16.38
31528;BMP280;10206;48.012;10.030;2022-10-22T01:40:14;94703.88;;;16.33
31528;BMP280;10206;48.012;10.030;2022-10-22T01:42:41;94706.72;;;16.35
31528;BMP280;10206;48.012;10.030;2022-10-22T01:45:12;94702.75;;;16.38
31528;BMP280;10206;48.012;10.030;2022-10-22T01:53:53;94708.25;;;16.38
31528;BMP280;10206;48.012;10.030;2022-10-22T01:56:53;94724.34;;;16.30
31528;BMP280;10206;48.012;10.030;2022-10-22T02:02:43;94704.66;;;16.36
31528;BMP280;10206;48.012;10.030;2022-10-22T02:05:18;94696.41;;;16.36
31528;BMP280;10206;48.012;10.030;2022-10-22T02:07:54;94701.38;;;16.26
31528;BMP280;10206;48.012;10.030;2022-10-22T02:10:23;94696.72;;;16.28
31528;BMP280;10206;48.012;10.030;2022-10-22T02:12:52;94705.06;;;16.30
31528;BMP280;10206;48.012;10.030;2022-10-22T02:15:21;94699.16;;;16.36
31528;BMP280;10206;48.012;10.030;2022-10-22T02:17:50;94706.41;;;16.29
31528;BMP280;10206;48.012;10.030;2022-10-22T02:20:30;94696.00;;;16.28
31528;BMP280;10206;48.012;10.030;2022-10-22T02:22:59;94690.75;;;16.20
31528;BMP280;10206;48.012;10.030;2022-10-22T02:25:31;94696.81;;;16.30
31528;BMP280;10206;48.012;10.030;2022-10-22T02:28:28;94701.69;;;16.32
31528;BMP280;10206;48.012;10.030;2022-10-22T02:31:06;94701.78;;;16.20
31528;BMP280;10206;48.012;10.030;2022-10-22T02:33:44;94708.91;;;16.25
31528;BMP280;10206;48.012;10.030;2022-10-22T02:36:14;94703.03;;;16.31
31528;BMP280;10206;48.012;10.030;2022-10-22T02:38:41;94713.34;;;16.05
31528;BMP280;10206;48.012;10.030;2022-10-22T02:41:07;94715.88;;;16.01
31528;BMP280;10206;48.012;10.030;2022-10-22T02:43:53;94702.34;;;16.05
31528;BMP280;10206;48.012;10.030;2022-10-22T02:46:19;94707.06;;;16.16
31528;BMP280;10206;48.012;10.030;2022-10-22T02:48:46;94707.72;;;16.03
31528;BMP280;10206;48.012;10.030;2022-10-22T02:51:12;94723.34;;;15.87
31528;BMP280;10206;48.012;10.030;2022-10-22T02:53:38;94710.59;;;16.05
31528;BMP280;10206;48.012;10.030;2022-10-22T02:56:04;94716.47;;;16.00
31528;BMP280;10206;48.012;10.030;2022-10-22T02:58:30;94719.22;;;16.00
31528;BMP280;10206;48.012;10.030;2022-10-22T03:00:55;94736.38;;;15.87
31528;BMP280;10206;48.012;10.030;2022-10-22T03:03:21;94721.06;;;15.95
31528;BMP280;10206;48.012;10.030;2022-10-22T03:05:49;94716.09;;;15.80
31528;BMP280;10206;48.012;10.030;2022-10-22T03:08:15;94727.75;;;15.55
31528;BMP280;10206;48.012;10.030;2022-10-22T03:10:40;94704.00;;;15.85
31528;BMP280;10206;48.012;10.030;2022-10-22T03:13:06;94715.31;;;15.91
31528;BMP280;10206;48.012;10.030;2022-10-22T03:15:32;94721.63;;;15.94
31528;BMP280;10206;48.012;10.030;2022-10-22T03:17:57;94725.91;;;16.08
31528;BMP280;10206;48.012;10.030;2022-10-22T03:20:23;94732.81;;;16.09
31528;BMP280;10206;48.012;10.030;2022-10-22T03:22:49;94737.91;;;16.01
31528;BMP280;10206;48.012;10.030;2022-10-22T03:25:20;94732.06;;;15.95
31528;BMP280;10206;48.012;10.030;2022-10-22T03:27:48;94743.78;;;15.96
31528;BMP280;10206;48.012;10.030;2022-10-22T03:30:14;94734.09;;;15.95
31528;BMP280;10206;48.012;10.030;2022-10-22T03:32:40;94729.88;;;15.94
31528;BMP280;10206;48.012;10.030;2022-10-22T03:35:06;94730.88;;;15.87
31528;BMP280;10206;48.012;10.030;2022-10-22T03:37:33;94733.53;;;15.85
31528;BMP280;10206;48.012;10.030;2022-10-22T03:40:02;94725.53;;;15.77
31528;BMP280;10206;48.012;10.030;2022-10-22T03:42:28;94743.31;;;15.51
31528;BMP280;10206;48.012;10.030;2022-10-22T03:44:53;94737.53;;;15.70
31528;BMP280;10206;48.012;10.030;2022-10-22T03:47:19;94750.06;;;15.73
31528;BMP280;10206;48.012;10.030;2022-10-22T03:49:50;94749.88;;;15.94
31528;BMP280;10206;48.012;10.030;2022-10-22T03:52:16;94759.13;;;15.87
31528;BMP280;10206;48.012;10.030;2022-10-22T03:54:42;94772.16;;;15.87
31528;BMP280;10206;48.012;10.030;2022-10-22T03:57:09;94765.59;;;15.80
31528;BMP280;10206;48.012;10.030;2022-10-22T03:59:43;94783.03;;;15.85
31528;BMP280;10206;48.012;10.030;2022-10-22T04:02:11;94773.47;;;15.86
31528;BMP280;10206;48.012;10.030;2022-10-22T04:04:37;94780.19;;;15.83
31528;BMP280;10206;48.012;10.030;2022-10-22T04:07:05;94779.09;;;15.88
31528;BMP280;10206;48.012;10.030;2022-10-22T04:09:32;94781.59;;;15.84
31528;BMP280;10206;48.012;10.030;2022-10-22T04:11:59;94787.03;;;15.70
31528;BMP280;10206;48.012;10.030;2022-10-22T04:14:25;94773.88;;;15.68
31528;BMP280;10206;48.012;10.030;2022-10-22T04:16:51;94778.44;;;15.64
31528;BMP280;10206;48.012;10.030;2022-10-22T04:19:17;94781.06;;;15.62
31528;BMP280;10206;48.012;10.030;2022-10-22T04:21:43;94775.91;;;15.68
31528;BMP280;10206;48.012;10.030;2022-10-22T04:24:09;94777.13;;;15.53
31528;BMP280;10206;48.012;10.030;2022-10-22T04:26:35;94781.31;;;15.54
31528;BMP280;10206;48.012;10.030;2022-10-22T04:29:01;94792.53;;;15.70
31528;BMP280;10206;48.012;10.030;2022-10-22T04:31:27;94789.41;;;15.76
31528;BMP280;10206;48.012;10.030;2022-10-22T04:33:58;94786.41;;;15.83
31528;BMP280;10206;48.012;10.030;2022-10-22T04:36:25;94776.03;;;15.70
31528;BMP280;10206;48.012;10.030;2022-10-22T04:38:55;94765.06;;;15.47
31528;BMP280;10206;48.012;10.030;2022-10-22T04:41:27;94761.94;;;15.52
31528;BMP280;10206;48.012;10.030;2022-10-22T04:43:55;94756.41;;;15.76
31528;BMP280;10206;48.012;10.030;2022-10-22T04:46:21;94756.84;;;15.24
31528;BMP280;10206;48.012;10.030;2022-10-22T04:48:49;94763.03;;;15.59
31528;BMP280;10206;48.012;10.030;2022-10-22T04:51:19;94748.78;;;15.62
31528;BMP280;10206;48.012;10.030;2022-10-22T04:53:45;94739.00;;;15.59
31528;BMP280;10206;48.012;10.030;2022-10-22T04:56:16;94738.16;;;15.57
31528;BMP280;10206;48.012;10.030;2022-10-22T04:58:52;94743.72;;;15.70
31528;BMP280;10206;48.012;10.030;2022-10-22T05:01:25;94742.81;;;15.66
31528;BMP280;10206;48.012;10.030;2022-10-22T05:03:54;94744.84;;;15.65
31528;BMP280;10206;48.012;10.030;2022-10-22T05:06:21;94734.44;;;15.52
31528;BMP280;10206;48.012;10.030;2022-10-22T05:08:52;94733.06;;;15.28
31528;BMP280;10206;48.012;10.030;2022-10-22T05:11:21;94728.19;;;15.15
31528;BMP280;10206;48.012;10.030;2022-10-22T05:13:48;94734.59;;;15.43
31528;BMP280;10206;48.012;10.030;2022-10-22T05:16:14;94737.09;;;15.50
31528;BMP280;10206;48.012;10.030;2022-10-22T05:18:43;94731.59;;;15.50
31528;BMP280;10206;48.012;10.030;2022-10-22T05:21:14;94743.13;;;15.72
31528;BMP280;10206;48.012;10.030;2022-10-22T05:23:40;94743.84;;;15.61
31528;BMP280;10206;48.012;10.030;2022-10-22T05:26:08;94748.69;;;15.60
31528;BMP280;10206;48.012;10.030;2022-10-22T05:28:35;94749.66;;;15.53
31528;BMP280;10206;48.012;10.030;2022-10-22T05:31:02;94740.44;;;15.49
31528;BMP280;10206;48.012;10.030;2022-10-22T05:33:31;94738.94;;;15.71
31528;BMP280;10206;48.012;10.030;2022-10-22T05:35:58;94753.16;;;15.79
31528;BMP280;10206;48.012;10.030;2022-10-22T05:38:24;94755.19;;;15.79
31528;BMP280;10206;48.012;10.030;2022-10-22T05:41:20;94752.16;;;15.49
31528;BMP280;10206;48.012;10.030;2022-10-22T05:43:46;94755.78;;;15.77
31528;BMP280;10206;48.012;10.030;2022-10-22T05:46:17;94764.16;;;15.79
31528;BMP280;10206;48.012;10.030;2022-10-22T05:48:46;94772.56;;;15.69
31528;BMP280;10206;48.012;10.030;2022-10-22T05:51:12;94780.44;;;15.75
31528;BMP280;10206;48.012;10.030;2022-10-22T05:53:41;94783.91;;;15.76
31528;BMP280;10206;48.012;10.030;2022-10-22T05:56:14;94785.81;;;15.61
31528;BMP280;10206;48.012;10.030;2022-10-22T05:58:42;94796.09;;;15.61
31528;BMP280;10206;48.012;10.030;2022-10-22T06:03:44;94797.53;;;15.74
31528;BMP280;10206;48.012;10.030;2022-10-22T06:06:34;94794.00;;;15.59
31528;BMP280;10206;48.012;10.030;2022-10-22T06:09:11;94794.19;;;15.75
31528;BMP280;10206;48.012;10.030;2022-10-22T06:11:38;94803.97;;;15.78
31528;BMP280;10206;48.012;10.030;2022-10-22T06:14:04;94812.00;;;15.86
31528;BMP280;10206;48.012;10.030;2022-10-22T06:16:30;94805.41;;;15.79
31528;BMP280;10206;48.012;10.030;2022-10-22T06:18:59;94811.63;;;15.91
31528;BMP280;10206;48.012;10.030;2022-10-22T06:21:27;94814.47;;;15.93
31528;BMP280;10206;48.012;10.030;2022-10-22T06:23:56;94822.09;;;16.06
31528;BMP280;10206;48.012;10.030;2022-10-22T06:26:23;94811.72;;;15.93
31528;BMP280;10206;48.012;10.030;2022-10-22T06:28:49;94816.59;;;16.06
31528;BMP280;10206;48.012;10.030;2022-10-22T06:31:14;94822.22;;;16.08
31528;BMP280;10206;48.012;10.030;2022-10-22T06:33:40;94839.81;;;16.03
31528;BMP280;10206;48.012;10.030;2022-10-22T06:36:16;94843.25;;;16.15
31528;BMP280;10206;48.012;10.030;2022-10-22T06:38:43;94839.16;;;16.28
31528;BMP280;10206;48.012;10.030;2022-10-22T06:41:14;94828.16;;;16.41
31528;BMP280;10206;48.012;10.030;2022-10-22T06:43:43;94840.78;;;16.58
31528;BMP280;10206;48.012;10.030;2022-10-22T06:46:14;94847.09;;;16.47
31528;BMP280;10206;48.012;10.030;2022-10-22T06:48:40;94846.69;;;16.52
31528;BMP280;10206;48.012;10.030;2022-10-22T06:51:10;94844.16;;;16.56
31528;BMP280;10206;48.012;10.030;2022-10-22T06:53:39;94847.03;;;16.58
31528;BMP280;10206;48.012;10.030;2022-10-22T06:56:13;94850.41;;;16.57
31528;BMP280;10206;48.012;10.030;2022-10-22T06:58:39;94843.13;;;16.50
31528;BMP280;10206;48.012;10.030;2022-10-22T07:01:09;94855.81;;;16.18
31528;BMP280;10206;48.012;10.030;2022-10-22T07:03:36;94857.75;;;16.41
31528;BMP280;10206;48.012;10.030;2022-10-22T07:06:05;94863.19;;;16.27
31528;BMP280;10206;48.012;10.030;2022-10-22T07:08:33;94871.19;;;16.35
31528;BMP280;10206;48.012;10.030;2022-10-22T07:11:28;94859.81;;;16.40
31528;BMP280;10206;48.012;10.030;2022-10-22T07:13:56;94870.91;;;16.42
31528;BMP280;10206;48.012;10.030;2022-10-22T07:16:23;94874.84;;;16.51
31528;BMP280;10206;48.012;10.030;2022-10-22T07:18:49;94870.25;;;16.30
31528;BMP280;10206;48.012;10.030;2022-10-22T07:21:17;94873.66;;;16.42
31528;BMP280;10206;48.012;10.030;2022-10-22T07:23:45;94876.66;;;16.72
31528;BMP280;10206;48.012;10.030;2022-10-22T07:26:14;94879.53;;;16.74
31528;BMP280;10206;48.012;10.030;2022-10-22T07:28:41;94872.16;;;16.65
31528;BMP280;10206;48.012;10.030;2022-10-22T07:31:09;94871.47;;;16.78
31528;BMP280;10206;48.012;10.030;2022-10-22T07:33:36;94879.66;;;16.76
31528;BMP280;10206;48.012;10.030;2022-10-22T07:36:07;94878.66;;;16.83
31528;BMP280;10206;48.012;10.030;2022-10-22T07:38:34;94878.19;;;17.00
31528;BMP280;10206;48.012;10.030;2022-10-22T07:40:59;94880.75;;;17.09
31528;BMP280;10206;48.012;10.030;2022-10-22T07:43:26;94895.69;;;17.18
31528;BMP280;10206;48.012;10.030;2022-10-22T07:45:51;94896.94;;;17.15
31528;BMP280;10206;48.012;10.030;2022-10-22T07:48:17;94902.63;;;17.19
31528;BMP280;10206;48.012;10.030;2022-10-22T07:50:43;94907.78;;;17.24
31528;BMP280;10206;48.012;10.030;2022-10-22T07:53:09;94902.47;;;17.42
31528;BMP280;10206;48.012;10.030;2022-10-22T07:55:35;94905.34;;;17.30
31528;BMP280;10206;48.012;10.030;2022-10-22T07:58:01;94902.59;;;17.44
31528;BMP280;10206;48.012;10.030;2022-10-22T08:00:26;94904.22;;;17.49
31528;BMP280;10206;48.012;10.030;2022-10-22T08:02:52;94904.44;;;17.53
31528;BMP280;10206;48.012;10.030;2022-10-22T08:05:18;94904.75;;;17.45
31528;BMP280;10206;48.012;10.030;2022-10-22T08:07:44;94911.72;;;17.60
31528;BMP280;10206;48.012;10.030;2022-10-22T08:10:11;94914.66;;;17.78
31528;BMP280;10206;48.012;10.030;2022-10-22T08:12:37;94922.03;;;17.73
31528;BMP280;10206;48.012;10.030;2022-10-22T08:15:04;94916.91;;;17.81
31528;BMP280;10206;48.012;10.030;2022-10-22T08:17:30;94920.59;;;17.72
31528;BMP280;10206;48.012;10.030;2022-10-22T08:19:55;94921.44;;;17.88
31528;BMP280;10206;48.012;10.030;2022-10-22T08:22:21;94918.34;;;17.82
31528;BMP280;10206;48.012;10.030;2022-10-22T08:24:47;94933.56;;;17.97
31528;BMP280;10206;48.012;10.030;2022-10-22T08:27:13;94926.75;;;17.84
31528;BMP280;10206;48.012;10.030;2022-10-22T08:29:39;94922.22;;;17.77
31528;BMP280;10206;48.012;10.030;2022-10-22T08:32:05;94927.94;;;17.81
31528;BMP280;10206;48.012;10.030;2022-10-22T08:34:31;94930.19;;;17.71
31528;BMP280;10206;48.012;10.030;2022-10-22T08:36:56;94928.16;;;17.72
31528;BMP280;10206;48.012;10.030;2022-10-22T08:39:23;94931.69;;;17.61
31528;BMP280;10206;48.012;10.030;2022-10-22T08:45:34;94941.63;;;17.52
31528;BMP280;10206;48.012;10.030;2022-10-22T08:48:42;94934.88;;;17.55
31528;BMP280;10206;48.012;10.030;2022-10-22T08:51:20;94938.66;;;17.62
31528;BMP280;10206;48.012;10.030;2022-10-22T08:54:05;94932.88;;;17.69
31528;BMP280;10206;48.012;10.030;2022-10-22T08:56:35;94935.63;;;17.69
31528;BMP280;10206;48.012;10.030;2022-10-22T08:59:21;94946.97;;;17.75
31528;BMP280;10206;48.012;10.030;2022-10-22T09:01:52;94941.16;;;17.83
31528;BMP280;10206;48.012;10.030;2022-10-22T09:04:28;94942.56;;;17.84
31528;BMP280;10206;48.012;10.030;2022-10-22T09:06:57;94947.47;;;17.72
31528;BMP280;10206;48.012;10.030;2022-10-22T09:09:31;94953.81;;;17.88
31528;BMP280;10206;48.012;10.030;2022-10-22T09:12:00;94954.13;;;18.07
31528;BMP280;10206;48.012;10.030;2022-10-22T09:14:26;94954.81;;;18.35
31528;BMP280;10206;48.012;10.030;2022-10-22T09:17:19;94963.31;;;18.82
31528;BMP280;10206;48.012;10.030;2022-10-22T09:20:15;94959.78;;;18.95
31528;BMP280;10206;48.012;10.030;2022-10-22T09:23:35;94968.91;;;18.84
31528;BMP280;10206;48.012;10.030;2022-10-22T09:26:11;94970.75;;;19.08
31528;BMP280;10206;48.012;10.030;2022-10-22T09:28:38;94974.88;;;19.07
31528;BMP280;10206;48.012;10.030;2022-10-22T09:31:13;94981.63;;;19.33
31528;BMP280;10206;48.012;10.030;2022-10-22T09:33:42;94975.28;;;19.62
31528;BMP280;10206;48.012;10.030;2022-10-22T09:36:15;94981.53;;;19.78
31528;BMP280;10206;48.012;10.030;2022-10-22T09:38:49;94979.25;;;19.28
31528;BMP280;10206;48.012;10.030;2022-10-22T09:41:16;94991.16;;;19.93
31528;BMP280;10206;48.012;10.030;2022-10-22T09:43:46;94993.03;;;19.88
31528;BMP280;10206;48.012;10.030;2022-10-22T09:46:27;95001.69;;;20.12
31528;BMP280;10206;48.012;10.030;2022-10-22T09:49:08;94997.06;;;19.85
31528;BMP280;10206;48.012;10.030;2022-10-22T09:51:55;94998.50;;;19.40
31528;BMP280;10206;48.012;10.030;2022-10-22T09:54:36;94994.88;;;20.15
31528;BMP280;10206;48.012;10.030;2022-10-22T09:57:14;95004.31;;;20.76
31528;BMP280;10206;48.012;10.030;2022-10-22T09:59:43;94998.66;;;19.90
31528;BMP280;10206;48.012;10.030;2022-10-22T10:02:16;95005.34;;;20.67
31528;BMP280;10206;48.012;10.030;2022-10-22T10:04:55;95011.75;;;20.36
31528;BMP280;10206;48.012;10.030;2022-10-22T10:07:25;95017.50;;;20.42
31528;BMP280;10206;48.012;10.030;2022-10-22T10:09:53;95015.91;;;20.88
31528;BMP280;10206;48.012;10.030;2022-10-22T10:13:01;95016.22;;;20.96
31528;BMP280;10206;48.012;10.030;2022-10-22T10:15:54;95021.00;;;21.11
31528;BMP280;10206;48.012;10.030;2022-10-22T10:21:39;95027.31;;;22.08
31528;BMP280;10206;48.012;10.030;2022-10-22T10:24:25;95030.88;;;21.34
31528;BMP280;10206;48.012;10.030;2022-10-22T10:27:21;95021.16;;;20.47
31528;BMP280;10206;48.012;10.030;2022-10-22T10:30:13;95035.50;;;20.75
31528;BMP280;10206;48.012;10.030;2022-10-22T10:36:05;95027.81;;;19.91
31528;BMP280;10206;48.012;10.030;2022-10-22T10:38:45;95034.91;;;19.96
31528;BMP280;10206;48.012;10.030;2022-10-22T10:41:48;95030.69;;;20.26
31528;BMP280;10206;48.012;10.030;2022-10-22T10:56:28;95027.47;;;20.83
31528;BMP280;10206;48.012;10.030;2022-10-22T10:59:22;95036.19;;;20.93
31528;BMP280;10206;48.012;10.030;2022-10-22T11:07:47;95042.50;;;21.48
31528;BMP280;10206;48.012;10.030;2022-10-22T11:10:51;95037.84;;;21.53
31528;BMP280;10206;48.012;10.030;2022-10-22T11:13:41;95038.38;;;21.86
31528;BMP280;10206;48.012;10.030;2022-10-22T11:16:32;95031.25;;;21.44
31528;BMP280;10206;48.012;10.030;2022-10-22T11:19:12;95029.53;;;22.11
31528;BMP280;10206;48.012;10.030;2022-10-22T11:21:56;95037.94;;;21.74
31528;BMP280;10206;48.012;10.030;2022-10-22T11:24:52;95036.09;;;22.20
31528;BMP280;10206;48.012;10.030;2022-10-22T11:27:30;95035.66;;;22.08
31528;BMP280;10206;48.012;10.030;2022-10-22T11:30:27;95038.34;;;22.25
31528;BMP280;10206;48.012;10.030;2022-10-22T11:33:00;95034.66;;;22.19
31528;BMP280;10206;48.012;10.030;2022-10-22T11:35:34;95025.91;;;22.07
31528;BMP280;10206;48.012;10.030;2022-10-22T11:38:03;95039.25;;;22.95
31528;BMP280;10206;48.012;10.030;2022-10-22T11:41:01;95029.22;;;22.42
31528;BMP280;10206;48.012;10.030;2022-10-22T11:43:32;95029.00;;;23.01
31528;BMP280;10206;48.012;10.030;2022-10-22T11:46:26;95033.81;;;22.99
31528;BMP280;10206;48.012;10.030;2022-10-22T11:49:17;95027.38;;;22.29
31528;BMP280;10206;48.012;10.030;2022-10-22T11:51:44;95028.78;;;22.30
31528;BMP280;10206;48.012;10.030;2022-10-22T11:57:26;95007.13;;;22.68
31528;BMP280;10206;48.012;10.030;2022-10-22T11:59:57;95014.41;;;22.57
31528;BMP280;10206;48.012;10.030;2022-10-22T12:02:43;95020.16;;;22.63
31528;BMP280;10206;48.012;10.030;2022-10-22T12:07:55;95008.31;;;23.30
31528;BMP280;10206;48.012;10.030;2022-10-22T12:10:27;95010.03;;;23.64
31528;BMP280;10206;48.012;10.030;2022-10-22T12:13:11;95007.25;;;23.41
31528;BMP280;10206;48.012;10.030;2022-10-22T12:15:52;95003.59;;;23.34
31528;BMP280;10206;48.012;10.030;2022-10-22T12:18:25;95008.06;;;23.69
31528;BMP280;10206;48.012;10.030;2022-10-22T12:20:52;94999.50;;;23.14
31528;BMP280;10206;48.012;10.030;2022-10-22T12:23:27;95006.03;;;23.01
31528;BMP280;10206;48.012;10.030;2022-10-22T12:25:53;95003.50;;;23.09
31528;BMP280;10206;48.012;10.030;2022-10-22T12:28:19;94995.88;;;23.33
31528;BMP280;10206;48.012;10.030;2022-10-22T12:30:45;95000.41;;;23.44
31528;BMP280;10206;48.012;10.030;2022-10-22T12:33:22;95004.66;;;23.98
31528;BMP280;10206;48.012;10.030;2022-10-22T12:35:49;95002.59;;;23.99
31528;BMP280;10206;48.012;10.030;2022-10-22T12:38:23;94981.94;;;23.82
31528;BMP280;10206;48.012;10.030;2022-10-22T12:40:54;94983.22;;;23.28
31528;BMP280;10206;48.012;10.030;2022-10-22T12:43:29;94982.97;;;23.20
31528;BMP280;10206;48.012;10.030;2022-10-22T12:45:57;94987.53;;;22.42
31528;BMP280;10206;48.012;10.030;2022-10-22T12:48:30;94975.41;;;22.34
31528;BMP280;10206;48.012;10.030;2022-10-22T12:51:01;94981.72;;;21.95
31528;BMP280;10206;48.012;10.030;2022-10-22T12:53:34;94982.75;;;21.84
31528;BMP280;10206;48.012;10.030;2022-10-22T12:56:11;94978.09;;;21.71
31528;BMP280;10206;48.012;10.030;2022-10-22T12:58:47;94980.31;;;21.55
31528;BMP280;10206;48.012;10.030;2022-10-22T13:01:16;94980.59;;;21.63
31528;BMP280;10206;48.012;10.030;2022-10-22T13:03:48;94975.06;;;21.63
31528;BMP280;10206;48.012;10.030;2022-10-22T13:08:54;94972.97;;;21.64
31528;BMP280;10206;48.012;10.030;2022-10-22T13:11:20;94975.19;;;21.87
31528;BMP280;10206;48.012;10.030;2022-10-22T13:13:46;94975.59;;;21.79
31528;BMP280;10206;48.012;10.030;2022-10-22T13:16:23;94970.72;;;21.58
31528;BMP280;10206;48.012;10.030;2022-10-22T13:18:51;94964.72;;;21.85
31528;BMP280;10206;48.012;10.030;2022-10-22T13:21:40;94958.53;;;21.48
31528;BMP280;10206;48.012;10.030;2022-10-22T13:24:23;94968.78;;;21.63
31528;BMP280;10206;48.012;10.030;2022-10-22T13:26:52;94960.91;;;21.75
31528;BMP280;10206;48.012;10.030;2022-10-22T13:29:21;94961.59;;;21.56
31528;BMP280;10206;48.012;10.030;2022-10-22T13:31:51;94964.72;;;21.66
31528;BMP280;10206;48.012;10.030;2022-10-22T13:34:21;94971.09;;;21.31
31528;BMP280;10206;48.012;10.030;2022-10-22T13:36:48;94971.09;;;21.31
31528;BMP280;10206;48.012;10.030;2022-10-22T13:39:22;94975.06;;;21.26
31528;BMP280;10206;48.012;10.030;2022-10-22T13:41:49;94978.69;;;21.30
31528;BMP280;10206;48.012;10.030;2022-10-22T13:44:17;94967.19;;;21.38
31528;BMP280;10206;48.012;10.030;2022-10-22T13:46:44;94970.66;;;21.19
31528;BMP280;10206;48.012;10.030;2022-10-22T13:49:19;94969.53;;;21.26
31528;BMP280;10206;48.012;10.030;2022-10-22T13:51:46;94977.75;;;21.24
31528;BMP280;10206;48.012;10.030;2022-10-22T13:54:22;94977.41;;;21.14
31528;BMP280;10206;48.012;10.030;2022-10-22T13:56:48;94973.69;;;20.90
31528;BMP280;10206;48.012;10.030;2022-10-22T13:59:15;94971.56;;;21.08
31528;BMP280;10206;48.012;10.030;2022-10-22T14:01:41;94974.16;;;20.67
31528;BMP280;10206;48.012;10.030;2022-10-22T14:04:11;94969.31;;;20.67
31528;BMP280;10206;48.012;10.030;2022-10-22T14:06:38;94978.81;;;20.80
31528;BMP280;10206;48.012;10.030;2022-10-22T14:09:06;94975.00;;;20.71
31528;BMP280;10206;48.012;10.030;2022-10-22T14:11:35;94969.31;;;20.16
31528;BMP280;10206;48.012;10.030;2022-10-22T14:14:01;94960.78;;;20.28
31528;BMP280;10206;48.012;10.030;2022-10-22T14:16:33;94963.50;;;20.43
31528;BMP280;10206;48.012;10.030;2022-10-22T14:19:00;94956.66;;;20.62
31528;BMP280;10206;48.012;10.030;2022-10-22T14:21:34;94959.56;;;20.49
31528;BMP280;10206;48.012;10.030;2022-10-22T14:24:00;94953.03;;;20.24
31528;BMP280;10206;48.012;10.030;2022-10-22T14:26:29;94954.59;;;20.29
31528;BMP280;10206;48.012;10.030;2022-10-22T14:28:58;94946.63;;;20.20
31528;BMP280;10206;48.012;10.030;2022-10-22T14:31:24;94945.41;;;19.92
31528;BMP280;10206;48.012;10.030;2022-10-22T14:33:50;94943.84;;;20.20
31528;BMP280;10206;48.012;10.030;2022-10-22T14:36:18;94950.31;;;19.93
31528;BMP280;10206;48.012;10.030;2022-10-22T14:38:46;94949.88;;;19.83
31528;BMP280;10206;48.012;10.030;2022-10-22T14:41:27;94948.88;;;19.59
31528;BMP280;10206;48.012;10.030;2022-10-22T14:43:53;94952.22;;;19.58
31528;BMP280;10206;48.012;10.030;2022-10-22T14:46:23;94950.66;;;19.53
31528;BMP280;10206;48.012;10.030;2022-10-22T14:48:49;94948.03;;;19.57
31528;BMP280;10206;48.012;10.030;2022-10-22T14:51:19;94956.72;;;19.33
31528;BMP280;10206;48.012;10.030;2022-10-22T14:53:46;94961.34;;;19.29
31528;BMP280;10206;48.012;10.030;2022-10-22T14:56:15;94955.72;;;19.27
31528;BMP280;10206;48.012;10.030;2022-10-22T14:58:41;94963.19;;;19.09
31528;BMP280;10206;48.012;10.030;2022-10-22T15:01:08;94961.66;;;19.06
31528;BMP280;10206;48.012;10.030;2022-10-22T15:03:34;94957.75;;;19.11
31528;BMP280;10206;48.012;10.030;2022-10-22T15:06:00;94958.28;;;19.07
31528;BMP280;10206;48.012;10.030;2022-10-22T15:08:26;94971.38;;;18.78
31528;BMP280;10206;48.012;10.030;2022-10-22T15:11:09;94961.53;;;18.46
31528;BMP280;10206;48.012;10.030;2022-10-22T15:13:35;94966.91;;;18.71
31528;BMP280;10206;48.012;10.030;2022-10-22T15:16:05;94974.84;;;18.49
31528;BMP280;10206;48.012;10.030;2022-10-22T15:18:31;94969.25;;;18.33
31528;BMP280;10206;48.012;10.030;2022-10-22T15:21:10;94972.63;;;18.05
31528;BMP280;10206;48.012;10.030;2022-10-22T15:23:37;94977.84;;;18.12